Time;durP1;ratioP1;P1;durP2;ratioP2;P2;SDS_P1;SDS_P2;PMS_P1;PMS_P2;Temp;Humidity;BMP_temperature;BMP_pressure;BME280_temperature;BME280_humidity;BME280_pressure;Samples;Min_cycle;Max_cycle;Signal;HPM_P1;HPM_P2
2023/03/21 00:00:42;;;;;;;22.83;15.43;;;;;;;8.65;100.00;101607.63;5054011;28;20151;-69
2023/03/21 00:03:07;;;;;;;22.48;16.15;;;;;;;8.65;100.00;101602.41;5049194;28;20314;-69
2023/03/21 00:05:33;;;;;;;23.52;16.38;;;;;;;8.64;100.00;101600.66;5054417;28;20151;-69
2023/03/21 00:07:59;;;;;;;21.92;17.02;;;;;;;8.64;100.00;101596.31;5055529;28;20040;-69
2023/03/21 00:10:24;;;;;;;24.02;18.13;;;;;;;8.63;100.00;101593.75;5054978;28;20098;-69
2023/03/21 00:12:57;;;;;;;29.48;18.98;;;;;;;8.63;100.00;101594.59;5037129;28;20044;-69
2023/03/21 00:15:25;;;;;;;21.40;17.55;;;;;;;8.63;100.00;101589.38;5054789;28;20368;-69
2023/03/21 00:17:52;;;;;;;23.90;18.23;;;;;;;8.63;100.00;101584.16;5054657;28;20040;-69
2023/03/21 00:20:19;;;;;;;19.20;16.33;;;;;;;8.65;100.00;101591.97;5035668;28;20108;-69
2023/03/21 00:22:45;;;;;;;20.50;16.63;;;;;;;8.67;100.00;101589.31;5037632;28;20553;-69
2023/03/21 00:25:10;;;;;;;24.00;17.40;;;;;;;8.67;100.00;101591.94;5056802;28;20151;-69
2023/03/21 00:27:36;;;;;;;23.40;17.65;;;;;;;8.66;100.00;101583.25;5055962;28;20328;-69
2023/03/21 00:30:03;;;;;;;20.58;17.15;;;;;;;8.67;100.00;101591.94;5056876;28;20403;-69
2023/03/21 00:32:28;;;;;;;23.98;17.45;;;;;;;8.65;100.00;101581.50;5054910;28;20041;-69
2023/03/21 00:34:54;;;;;;;25.73;17.13;;;;;;;8.65;100.00;101584.97;5053849;28;20048;-69
2023/03/21 00:37:19;;;;;;;22.50;16.77;;;;;;;8.65;100.00;101577.13;5050640;28;20086;-69
2023/03/21 00:39:48;;;;;;;20.33;17.05;;;;;;;8.65;100.00;101577.13;5038250;28;20045;-69
2023/03/21 00:42:14;;;;;;;23.08;16.48;;;;;;;8.67;100.00;101586.72;5057165;28;20263;-69
2023/03/21 00:44:41;;;;;;;21.40;16.08;;;;;;;8.67;100.00;101587.56;5056745;28;20017;-69
2023/03/21 00:47:08;;;;;;;19.52;15.45;;;;;;;8.67;100.00;101584.09;5056813;28;20037;-69
2023/03/21 00:49:33;;;;;;;24.13;17.65;;;;;;;8.65;100.00;101582.38;5056482;28;20240;-69
2023/03/21 00:52:00;;;;;;;20.45;16.88;;;;;;;8.65;100.00;101571.91;5057239;28;20040;-69
2023/03/21 00:54:26;;;;;;;22.52;16.95;;;;;;;8.65;100.00;101571.91;5056985;28;20048;-69
2023/03/21 00:56:52;;;;;;;22.30;17.30;;;;;;;8.66;100.00;101570.19;5056345;28;20410;-70
2023/03/21 00:59:17;;;;;;;20.88;16.40;;;;;;;8.65;100.00;101563.22;5056571;28;20099;-70
2023/03/21 01:01:45;;;;;;;20.63;16.85;;;;;;;8.65;100.00;101565.84;5056394;28;20051;-70
2023/03/21 01:04:13;;;;;;;24.73;17.50;;;;;;;8.65;100.00;101560.63;5056249;28;20064;-70
2023/03/21 01:06:40;;;;;;;21.57;17.10;;;;;;;8.65;100.00;101551.03;5056456;28;20051;-70
2023/03/21 01:09:15;;;;;;;26.38;18.27;;;;;;;8.65;100.00;101548.41;5056235;28;20224;-70
2023/03/21 01:11:41;;;;;;;22.38;17.17;;;;;;;8.66;100.00;101546.69;5055326;28;20219;-70
2023/03/21 01:14:07;;;;;;;25.48;17.08;;;;;;;8.67;100.00;101553.59;5056684;28;20072;-70
2023/03/21 01:16:32;;;;;;;25.40;18.40;;;;;;;8.66;100.00;101541.47;5055578;28;20104;-70
2023/03/21 01:18:58;;;;;;;26.05;17.27;;;;;;;8.66;100.00;101544.06;5056354;28;20041;-70
2023/03/21 01:21:24;;;;;;;19.13;15.63;;;;;;;8.66;100.00;101538.84;5056379;28;20249;-70
2023/03/21 01:23:49;;;;;;;34.35;18.55;;;;;;;8.67;100.00;101542.31;5039357;28;20071;-70
2023/03/21 01:26:15;;;;;;;26.60;17.80;;;;;;;8.67;100.00;101537.94;5056504;28;20075;-70
2023/03/21 01:28:42;;;;;;;24.15;16.20;;;;;;;8.67;100.00;101530.09;5056372;28;20319;-70
2023/03/21 01:31:10;;;;;;;22.17;15.18;;;;;;;8.68;100.00;101524.00;5056465;28;20049;-70
2023/03/21 01:33:35;;;;;;;23.75;16.45;;;;;;;8.68;100.00;101517.91;5056408;28;20105;-70
2023/03/21 01:36:01;;;;;;;23.38;16.00;;;;;;;8.68;100.00;101524.00;5041051;28;20033;-70
2023/03/21 01:38:26;;;;;;;21.58;14.82;;;;;;;8.68;100.00;101516.16;5056481;28;20064;-70
2023/03/21 01:40:52;;;;;;;22.52;14.27;;;;;;;8.69;100.00;101519.63;5038246;28;20099;-70
2023/03/21 01:43:25;;;;;;;19.95;14.07;;;;;;;8.68;100.00;101510.06;5056658;28;20223;-70
2023/03/21 01:46:09;;;;;;;25.33;14.93;;;;;;;8.66;100.00;101515.34;5056008;28;20046;-70
2023/03/21 01:48:37;;;;;;;20.17;13.20;;;;;;;8.65;100.00;101511.00;5055506;28;20320;-70
2023/03/21 01:51:03;;;;;;;20.45;12.70;;;;;;;8.65;100.00;101511.00;5055343;28;20036;-69
2023/03/21 01:53:31;;;;;;;15.73;11.80;;;;;;;8.67;100.00;101521.44;5060454;28;20044;-69
2023/03/21 01:56:00;;;;;;;23.70;13.37;;;;;;;8.66;100.00;101517.97;5059645;28;20287;-69
2023/03/21 01:58:26;;;;;;;22.65;11.85;;;;;;;8.65;100.00;101509.25;5060052;28;20335;-69
2023/03/21 02:04:13;;;;;;;20.95;11.43;;;;;;;8.65;100.00;101505.78;5056687;28;20082;-69
2023/03/21 02:06:45;;;;;;;13.77;10.52;;;;;;;8.67;100.00;101503.16;5062280;28;20103;-69
2023/03/21 02:09:15;;;;;;;13.10;11.52;;;;;;;8.67;100.00;101506.59;5059708;28;20040;-69
2023/03/21 02:11:45;;;;;;;13.40;11.18;;;;;;;8.68;100.00;101507.47;5060147;28;20348;-69
2023/03/21 02:14:14;;;;;;;18.17;11.52;;;;;;;8.67;100.00;101508.38;5062979;28;20020;-69
2023/03/21 02:17:00;;;;;;;15.73;10.23;;;;;;;8.67;100.00;101505.75;5070788;28;20224;-69
2023/03/21 02:19:41;;;;;;;14.40;9.43;;;;;;;8.67;100.00;101505.75;5068300;28;20028;-69
2023/03/21 02:22:24;;;;;;;15.02;9.68;;;;;;;8.65;100.00;101496.19;5065730;28;20079;-69
2023/03/21 02:24:52;;;;;;;12.27;9.10;;;;;;;8.63;100.00;101489.28;5068749;28;20028;-69
2023/03/21 02:27:23;;;;;;;10.40;8.45;;;;;;;8.63;100.00;101486.69;5066377;28;20024;-69
2023/03/21 02:30:07;;;;;;;18.20;9.55;;;;;;;8.62;100.00;101479.72;5071693;28;20048;-69
2023/03/21 02:32:41;;;;;;;11.75;8.70;;;;;;;8.62;100.00;101474.50;5062362;28;20029;-69
2023/03/21 02:35:28;;;;;;;8.68;7.78;;;;;;;8.63;100.00;101471.88;5063704;28;20119;-69
2023/03/21 02:38:02;;;;;;;10.63;7.70;;;;;;;8.63;100.00;101466.66;5056872;28;20036;-69
2023/03/21 02:40:33;;;;;;;8.82;7.68;;;;;;;8.64;100.00;101460.53;5076242;28;20060;-69
2023/03/21 02:43:08;;;;;;;8.38;7.55;;;;;;;8.65;100.00;101466.63;5062617;28;20036;-69
2023/03/21 02:46:02;;;;;;;12.00;7.65;;;;;;;8.67;100.00;101458.75;5060051;28;20225;-69
2023/03/21 02:48:36;;;;;;;9.27;6.93;;;;;;;8.67;100.00;101461.38;5051050;28;20099;-69
2023/03/21 02:51:05;;;;;;;8.32;6.85;;;;;;;8.69;100.00;101456.97;5071331;28;20100;-69
2023/03/21 02:53:37;;;;;;;9.88;7.07;;;;;;;8.69;100.00;101462.19;5062965;28;20343;-69
2023/03/21 02:56:09;;;;;;;18.92;10.27;;;;;;;8.69;100.00;101459.56;5070993;28;20036;-69
2023/03/21 02:58:35;;;;;;;8.98;7.72;;;;;;;8.70;100.00;101453.47;5062606;28;20032;-69
2023/03/21 03:01:01;;;;;;;10.00;8.00;;;;;;;8.68;100.00;101465.69;5054233;28;20048;-69
2023/03/21 03:03:26;;;;;;;9.32;7.68;;;;;;;8.68;100.00;101453.50;5066393;28;20020;-69
2023/03/21 03:05:55;;;;;;;12.18;8.95;;;;;;;8.68;100.00;101447.41;5069689;28;20143;-69
2023/03/21 03:08:51;;;;;;;11.23;8.82;;;;;;;8.67;100.00;101450.91;5063714;28;20060;-69
2023/03/21 03:11:36;;;;;;;12.13;8.32;;;;;;;8.67;100.00;101451.78;5066108;28;20055;-69
2023/03/21 03:14:20;;;;;;;16.40;10.90;;;;;;;8.67;100.00;101448.31;5068864;28;20150;-69
2023/03/21 03:17:00;;;;;;;10.57;9.00;;;;;;;8.67;100.00;101453.53;5062614;28;20346;-69
2023/03/21 03:19:30;;;;;;;17.58;10.45;;;;;;;8.64;100.00;101460.53;5062951;28;20337;-69
2023/03/21 03:22:02;;;;;;;13.35;9.48;;;;;;;8.64;100.00;101460.53;5066711;28;20247;-69
2023/03/21 03:24:35;;;;;;;15.23;9.95;;;;;;;8.65;100.00;101448.34;5075916;28;20044;-69
2023/03/21 03:27:17;;;;;;;10.00;8.88;;;;;;;8.64;100.00;101449.22;5067003;28;20040;-69
2023/03/21 03:29:45;;;;;;;13.50;9.77;;;;;;;8.65;100.00;101443.13;5060593;28;20036;-69
2023/03/21 03:32:22;;;;;;;12.35;9.20;;;;;;;8.64;100.00;101444.88;5067270;28;20044;-69
2023/03/21 03:34:55;;;;;;;14.00;9.75;;;;;;;8.65;100.00;101436.13;5064040;28;20339;-69
2023/03/21 03:37:25;;;;;;;12.82;9.13;;;;;;;8.65;100.00;101435.28;5075561;28;20037;-69
2023/03/21 03:40:01;;;;;;;13.93;8.88;;;;;;;8.65;100.00;101435.28;5059448;28;20071;-69
2023/03/21 03:42:33;;;;;;;9.85;8.63;;;;;;;8.65;100.00;101435.28;5078275;28;20032;-69
2023/03/21 03:45:00;;;;;;;20.02;9.98;;;;;;;8.65;100.00;101432.66;5066120;28;20037;-70
2023/03/21 03:48:00;;;;;;;16.83;9.73;;;;;;;8.63;100.00;101430.09;5067528;28;20092;-70
2023/03/21 03:50:30;;;;;;;11.95;8.38;;;;;;;8.64;100.00;101418.78;5044135;28;20237;-70
2023/03/21 03:53:04;;;;;;;11.93;8.98;;;;;;;8.64;100.00;101425.72;5067180;28;20248;-70
2023/03/21 03:55:33;;;;;;;11.30;8.85;;;;;;;8.64;100.00;101429.22;5058752;28;20095;-70
2023/03/21 03:58:00;;;;;;;15.88;9.07;;;;;;;8.65;100.00;101430.06;5051751;28;20048;-70
2023/03/21 04:00:26;;;;;;;13.63;8.82;;;;;;;8.63;100.00;101419.66;5078198;28;20119;-70
2023/03/21 04:02:52;;;;;;;12.52;8.88;;;;;;;8.63;100.00;101421.41;5069874;28;20578;-70
2023/03/21 04:05:20;;;;;;;15.10;9.27;;;;;;;8.60;100.00;101419.75;5052231;28;20059;-70
2023/03/21 04:07:49;;;;;;;12.68;8.77;;;;;;;8.59;100.00;101415.41;5071394;28;20036;-70
2023/03/21 04:10:16;;;;;;;12.25;8.55;;;;;;;8.59;100.00;101420.63;5058840;28;20308;-70
2023/03/21 04:12:41;;;;;;;11.50;8.65;;;;;;;8.60;100.00;101413.63;5058307;28;20075;-70
2023/03/21 04:15:07;;;;;;;14.77;8.88;;;;;;;8.60;100.00;101417.13;5073689;28;20060;-70
2023/03/21 04:17:33;;;;;;;11.57;8.30;;;;;;;8.62;100.00;101409.22;5058126;28;20086;-70
2023/03/21 04:19:58;;;;;;;10.98;8.30;;;;;;;8.61;100.00;101411.00;5059038;28;20328;-70
2023/03/21 04:22:24;;;;;;;14.13;8.43;;;;;;;8.61;100.00;101403.16;5068184;28;20120;-70
2023/03/21 04:24:50;;;;;;;11.40;7.68;;;;;;;8.63;100.00;101405.75;5070377;28;20039;-70
2023/03/21 04:27:15;;;;;;;10.27;7.47;;;;;;;8.63;100.00;101401.38;5062127;28;20033;-70
2023/03/21 04:29:41;;;;;;;11.95;8.18;;;;;;;8.63;100.00;101401.38;5058388;28;20040;-70
2023/03/21 04:32:15;;;;;;;11.25;8.25;;;;;;;8.63;100.00;101400.53;5064252;28;20403;-70
2023/03/21 04:34:42;;;;;;;11.25;7.95;;;;;;;8.63;100.00;101400.53;5065609;28;20033;-70
2023/03/21 04:37:10;;;;;;;9.77;8.02;;;;;;;8.63;100.00;101395.31;5047248;28;20216;-70
2023/03/21 04:39:37;;;;;;;12.48;8.75;;;;;;;8.62;100.00;101391.84;5057794;28;20200;-69
2023/03/21 04:42:02;;;;;;;10.95;7.97;;;;;;;8.63;100.00;101398.75;5064188;28;20041;-69
2023/03/21 04:44:28;;;;;;;11.73;7.70;;;;;;;8.63;100.00;101392.69;5058222;28;20277;-69
2023/03/21 04:46:53;;;;;;;13.70;8.63;;;;;;;8.63;100.00;101390.94;5066511;28;20410;-69
2023/03/21 04:49:20;;;;;;;11.93;8.90;;;;;;;8.61;100.00;101384.88;5062857;28;20251;-69
2023/03/21 04:51:45;;;;;;;14.35;9.45;;;;;;;8.62;100.00;101389.22;5048361;28;20029;-69
2023/03/21 04:54:12;;;;;;;12.40;8.15;;;;;;;8.62;100.00;101384.00;5064647;28;20074;-69
2023/03/21 04:56:38;;;;;;;10.85;8.13;;;;;;;8.61;100.00;101384.03;5064037;28;20328;-69
2023/03/21 04:59:10;;;;;;;15.65;9.65;;;;;;;8.61;100.00;101384.03;5064509;28;20039;-69
2023/03/21 05:01:35;;;;;;;13.88;8.80;;;;;;;8.62;100.00;101370.06;5046870;28;20227;-69
2023/03/21 05:04:02;;;;;;;12.27;9.02;;;;;;;8.62;100.00;101370.06;5070369;28;20044;-69
2023/03/21 05:06:27;;;;;;;12.80;8.63;;;;;;;8.61;100.00;101373.59;5048273;28;20049;-69
2023/03/21 05:09:03;;;;;;;17.00;10.38;;;;;;;8.61;100.00;101371.84;5070413;28;20071;-69
2023/03/21 05:11:30;;;;;;;14.20;9.70;;;;;;;8.62;100.00;101370.06;5073955;28;20049;-69
2023/03/21 05:13:57;;;;;;;13.73;9.30;;;;;;;8.61;100.00;101371.84;5069593;28;20067;-69
2023/03/21 05:16:25;;;;;;;11.45;8.27;;;;;;;8.61;100.00;101374.44;5043297;28;20356;-69
2023/03/21 05:18:53;;;;;;;12.68;8.95;;;;;;;8.61;100.00;101369.22;5057517;28;20071;-69
2023/03/21 05:21:19;;;;;;;15.70;9.75;;;;;;;8.61;100.00;101376.22;5057143;28;20328;-69
2023/03/21 05:23:44;;;;;;;12.50;9.40;;;;;;;8.62;100.00;101375.28;5057316;28;20048;-69
2023/03/21 05:26:10;;;;;;;14.60;9.20;;;;;;;8.61;100.00;101373.59;5056981;28;20037;-69
2023/03/21 05:28:35;;;;;;;12.05;9.00;;;;;;;8.61;100.00;101377.06;5057111;28;20332;-69
2023/03/21 05:31:04;;;;;;;12.82;9.57;;;;;;;8.61;100.00;101376.22;5056186;28;20098;-69
2023/03/21 05:33:30;;;;;;;12.20;8.98;;;;;;;8.61;100.00;101369.22;5057530;28;20036;-69
2023/03/21 05:35:55;;;;;;;17.15;9.30;;;;;;;8.60;100.00;101375.34;5056794;28;20102;-69
2023/03/21 05:38:20;;;;;;;12.45;9.98;;;;;;;8.61;100.00;101376.22;5057002;28;20033;-69
2023/03/21 05:40:50;;;;;;;14.13;10.02;;;;;;;8.60;100.00;101377.09;5056058;28;20068;-69
2023/03/21 05:43:15;;;;;;;13.07;8.82;;;;;;;8.60;100.00;101375.34;5056141;28;20036;-69
2023/03/21 05:45:42;;;;;;;15.90;10.43;;;;;;;8.59;100.00;101372.78;5056879;28;20040;-69
2023/03/21 05:48:07;;;;;;;19.20;11.30;;;;;;;8.58;100.00;101374.50;5057315;28;20033;-69
2023/03/21 05:50:33;;;;;;;15.35;9.98;;;;;;;8.58;100.00;101378.88;5042155;28;20159;-69
2023/03/21 05:52:58;;;;;;;13.20;9.05;;;;;;;8.57;100.00;101369.34;5057534;28;20359;-69
2023/03/21 05:55:24;;;;;;;12.88;9.35;;;;;;;8.57;100.00;101374.56;5056737;28;20045;-69
2023/03/21 05:57:49;;;;;;;11.00;8.90;;;;;;;8.57;100.00;101372.81;5056504;28;20045;-69
2023/03/21 06:00:16;;;;;;;15.13;10.10;;;;;;;8.59;100.00;101372.78;5056781;28;20041;-69
2023/03/21 06:02:42;;;;;;;11.90;8.77;;;;;;;8.58;100.00;101379.72;5057006;28;20029;-69
2023/03/21 06:05:08;;;;;;;11.23;8.15;;;;;;;8.59;100.00;101378.00;5056475;28;20032;-69
2023/03/21 06:07:34;;;;;;;11.80;8.40;;;;;;;8.57;100.00;101375.41;5056227;28;20124;-69
2023/03/21 06:10:00;;;;;;;15.73;9.15;;;;;;;8.59;100.00;101381.47;5045283;28;20052;-69
2023/03/21 06:12:25;;;;;;;12.95;9.15;;;;;;;8.57;100.00;101385.88;5056679;28;20041;-69
2023/03/21 06:14:50;;;;;;;12.32;8.20;;;;;;;8.56;100.00;101381.53;5058616;28;20057;-69
2023/03/21 06:17:16;;;;;;;13.45;8.55;;;;;;;8.57;100.00;101377.19;5062969;28;20045;-69
2023/03/21 06:19:41;;;;;;;10.80;8.00;;;;;;;8.57;100.00;101385.00;5073866;28;20028;-69
2023/03/21 06:22:07;;;;;;;11.43;8.00;;;;;;;8.56;100.00;101381.53;5054872;28;20036;-69
2023/03/21 06:24:32;;;;;;;13.07;8.63;;;;;;;8.57;100.00;101387.63;5055721;28;20037;-69
2023/03/21 06:26:57;;;;;;;14.13;9.20;;;;;;;8.56;100.00;101383.28;5057224;28;20045;-69
2023/03/21 06:29:23;;;;;;;10.70;8.02;;;;;;;8.56;100.00;101384.13;5062125;28;20272;-69
2023/03/21 06:31:48;;;;;;;11.57;8.05;;;;;;;8.56;100.00;101380.69;5057415;28;20433;-71
2023/03/21 06:34:14;;;;;;;11.82;8.70;;;;;;;8.57;100.00;101382.41;5073742;28;20040;-71
2023/03/21 06:36:39;;;;;;;15.73;8.90;;;;;;;8.57;100.00;101379.78;5056699;28;20078;-72
2023/03/21 06:39:07;;;;;;;13.48;8.40;;;;;;;8.57;100.00;101378.03;5061489;28;20044;-72
2023/03/21 06:41:32;;;;;;;12.77;8.65;;;;;;;8.57;100.00;101383.25;5075036;28;20036;-72
2023/03/21 06:43:58;;;;;;;12.77;8.25;;;;;;;8.57;100.00;101379.78;5064493;28;20542;-72
2023/03/21 06:46:23;;;;;;;15.68;9.57;;;;;;;8.56;100.00;101378.06;5066313;28;20071;-72
2023/03/21 06:48:49;;;;;;;17.65;9.10;;;;;;;8.56;100.00;101372.84;5071611;28;20047;-72
2023/03/21 06:51:14;;;;;;;15.25;8.35;;;;;;;8.56;100.00;101372.84;5071536;28;20028;-72
2023/03/21 06:53:40;;;;;;;11.15;8.10;;;;;;;8.56;100.00;101357.19;5058426;28;20095;-72
2023/03/21 06:56:10;;;;;;;12.65;8.13;;;;;;;8.56;100.00;101359.78;5064649;28;20099;-72
2023/03/21 06:58:35;;;;;;;11.30;8.10;;;;;;;8.56;100.00;101365.84;5070468;28;20064;-72
2023/03/21 07:01:02;;;;;;;12.32;8.27;;;;;;;8.55;100.00;101358.94;5063877;28;20049;-70
2023/03/21 07:03:28;;;;;;;11.38;7.65;;;;;;;8.56;100.00;101347.59;5067910;28;20041;-70
2023/03/21 07:05:53;;;;;;;11.60;7.95;;;;;;;8.56;100.00;101342.38;5072928;28;20367;-70
2023/03/21 07:08:18;;;;;;;11.30;8.00;;;;;;;8.55;100.00;101338.06;5060272;28;20037;-70
2023/03/21 07:10:45;;;;;;;11.00;7.70;;;;;;;8.56;100.00;101331.06;5060070;28;20067;-70
2023/03/21 07:13:11;;;;;;;11.02;8.00;;;;;;;8.57;100.00;101335.41;5065863;28;20040;-70
2023/03/21 07:15:37;;;;;;;9.95;7.72;;;;;;;8.57;100.00;101328.44;5049683;28;20056;-72
2023/03/21 07:18:04;;;;;;;11.55;7.53;;;;;;;8.57;100.00;101344.09;5043779;28;20244;-70
2023/03/21 07:20:30;;;;;;;12.00;7.53;;;;;;;8.57;100.00;101344.09;5047087;28;20067;-70
2023/03/21 07:22:56;;;;;;;10.45;7.35;;;;;;;8.58;100.00;101337.09;5047009;28;20853;-70
2023/03/21 07:25:22;;;;;;;10.80;7.72;;;;;;;8.59;100.00;101337.06;5041701;28;20087;-70
2023/03/21 07:27:47;;;;;;;10.95;7.10;;;;;;;8.58;100.00;101335.34;5046893;28;20025;-70
2023/03/21 07:30:13;;;;;;;8.70;6.68;;;;;;;8.59;100.00;101333.63;5047259;28;20037;-70
2023/03/21 07:32:38;;;;;;;9.13;6.90;;;;;;;8.59;100.00;101336.22;5047743;28;20037;-70
2023/03/21 07:35:09;;;;;;;8.55;6.60;;;;;;;8.59;100.00;101338.84;5042036;28;20526;-70
2023/03/21 07:37:35;;;;;;;9.10;7.03;;;;;;;8.60;100.00;101337.91;5032675;28;20351;-70
2023/03/21 07:40:00;;;;;;;9.70;7.15;;;;;;;8.59;100.00;101342.28;5035424;28;20044;-70
2023/03/21 07:42:26;;;;;;;9.43;6.57;;;;;;;8.60;100.00;101337.91;5040475;28;20044;-70
2023/03/21 07:44:53;;;;;;;11.48;7.45;;;;;;;8.61;100.00;101339.66;5042417;28;20033;-71
2023/03/21 07:47:19;;;;;;;10.82;7.82;;;;;;;8.60;100.00;101325.75;5024384;28;20376;-70
2023/03/21 07:49:44;;;;;;;9.63;7.20;;;;;;;8.60;100.00;101327.47;5042023;28;20068;-70
2023/03/21 07:52:10;;;;;;;11.40;7.03;;;;;;;8.61;100.00;101326.59;5045158;28;20033;-70
2023/03/21 07:54:35;;;;;;;9.40;7.25;;;;;;;8.60;100.00;101320.53;5041251;28;20041;-70
2023/03/21 07:57:01;;;;;;;8.85;6.50;;;;;;;8.61;100.00;101324.84;5039462;28;20247;-70
2023/03/21 07:59:26;;;;;;;10.85;7.13;;;;;;;8.63;100.00;101319.59;5041854;28;20117;-70
2023/03/21 08:01:51;;;;;;;8.07;6.10;;;;;;;8.63;100.00;101311.75;5040615;28;20337;-70
2023/03/21 08:04:17;;;;;;;9.05;6.55;;;;;;;8.65;100.00;101315.19;5024740;28;20489;-70
2023/03/21 08:06:42;;;;;;;9.30;6.65;;;;;;;8.65;100.00;101305.56;5041416;28;20095;-70
2023/03/21 08:09:08;;;;;;;9.68;6.60;;;;;;;8.68;100.00;101309.00;5040578;28;20358;-70
2023/03/21 08:11:33;;;;;;;7.10;6.18;;;;;;;8.68;100.00;101314.22;5032558;28;20420;-70
2023/03/21 08:14:00;;;;;;;9.90;5.95;;;;;;;8.70;100.00;101312.47;5036008;28;20321;-70
2023/03/21 08:16:26;;;;;;;6.72;5.90;;;;;;;8.71;100.00;101309.78;5039962;28;20144;-70
2023/03/21 08:18:51;;;;;;;7.90;6.32;;;;;;;8.71;100.00;101307.19;5042905;28;20049;-70
2023/03/21 08:21:17;;;;;;;7.22;6.18;;;;;;;8.73;100.00;101304.53;5045863;28;20051;-70
2023/03/21 08:23:42;;;;;;;10.43;6.75;;;;;;;8.74;100.00;101306.25;5045912;28;20048;-70
2023/03/21 08:26:09;;;;;;;10.70;6.47;;;;;;;8.74;100.00;101312.31;5040457;28;20133;-70
2023/03/21 08:28:35;;;;;;;8.70;6.28;;;;;;;8.74;100.00;101299.28;5037982;28;20202;-70
2023/03/21 08:31:07;;;;;;;7.90;5.72;;;;;;;8.78;100.00;101292.22;5037204;28;20064;-70
2023/03/21 08:33:33;;;;;;;9.65;6.28;;;;;;;8.78;100.00;101287.84;5036848;28;20099;-70
2023/03/21 08:35:59;;;;;;;8.82;6.25;;;;;;;8.80;100.00;101287.81;5037236;28;20253;-70
2023/03/21 08:38:28;;;;;;;10.45;6.45;;;;;;;8.82;100.00;101288.63;5034842;28;20312;-70
2023/03/21 08:40:53;;;;;;;;;;;;;;;8.82;100.00;101275.56;5035518;28;20317;-70
2023/03/21 08:43:19;;;;;;;12.50;6.32;;;;;;;8.84;100.00;101278.97;5037132;28;19917;-70
2023/03/21 08:45:44;;;;;;;15.30;6.43;;;;;;;8.84;100.00;101276.38;5031647;28;20052;-70
2023/03/21 08:48:09;;;;;;;9.60;6.32;;;;;;;8.86;100.00;101278.94;5022294;28;20029;-70
2023/03/21 08:50:35;;;;;;;7.97;6.53;;;;;;;8.88;100.00;101277.16;5036293;28;20045;-70
2023/03/21 08:53:00;;;;;;;6.88;5.78;;;;;;;8.89;100.00;101278.88;5037251;28;20083;-70
2023/03/21 08:55:26;;;;;;;8.52;6.50;;;;;;;8.90;100.00;101276.22;5036479;28;20045;-70
2023/03/21 08:57:51;;;;;;;15.57;8.77;;;;;;;8.92;100.00;101281.41;5022465;28;20044;-70
2023/03/21 09:00:19;;;;;;;13.68;8.00;;;;;;;8.92;100.00;101269.22;5021615;28;20045;-71
2023/03/21 09:02:47;;;;;;;14.55;8.40;;;;;;;8.94;100.00;101266.56;5026286;28;20301;-70
2023/03/21 09:05:15;;;;;;;13.45;7.63;;;;;;;8.94;100.00;101264.78;5037894;28;20052;-70
2023/03/21 09:07:41;;;;;;;13.65;8.18;;;;;;;8.95;100.00;101263.91;5040348;28;20259;-70
2023/03/21 09:10:10;;;;;;;15.80;8.88;;;;;;;8.98;100.00;101257.72;5036454;28;20060;-70
2023/03/21 09:12:35;;;;;;;;;;;;;;;9.00;100.00;101254.19;5036555;28;20040;-70
2023/03/21 09:15:04;;;;;;;16.88;9.77;;;;;;;9.01;100.00;101244.59;5042632;28;20120;-70
2023/03/21 09:17:31;;;;;;;15.40;8.95;;;;;;;9.04;100.00;101257.59;5056481;28;20328;-70
2023/03/21 09:19:59;;;;;;;16.25;9.70;;;;;;;9.05;100.00;101251.44;5037655;28;20028;-70
2023/03/21 09:22:27;;;;;;;22.27;10.27;;;;;;;9.07;100.00;101249.63;5056230;28;20108;-70
2023/03/21 09:24:53;;;;;;;16.65;9.52;;;;;;;9.10;100.00;101246.94;5054707;28;20044;-70
2023/03/21 09:27:22;;;;;;;18.50;10.82;;;;;;;9.12;100.00;101245.16;5055138;28;20076;-70
2023/03/21 09:29:48;;;;;;;;;;;;;;;9.15;100.00;101241.56;5056300;28;20374;-70
2023/03/21 09:32:14;;;;;;;20.75;11.10;;;;;;;9.17;100.00;101245.88;5056226;28;19947;-70
2023/03/21 09:34:40;;;;;;;21.65;11.13;;;;;;;9.21;100.00;101238.81;5056001;28;20039;-70
2023/03/21 09:37:12;;;;;;;22.90;11.63;;;;;;;9.21;100.00;101242.28;5056102;28;20071;-70
2023/03/21 09:39:39;;;;;;;26.52;11.10;;;;;;;9.22;100.00;101244.00;5055422;28;20227;-70
2023/03/21 09:42:27;;;;;;;20.20;11.40;;;;;;;9.23;100.00;101242.22;5055591;28;20043;-70
2023/03/21 09:45:15;;;;;;;22.55;11.57;;;;;;;9.26;100.00;101243.88;5055786;28;20029;-70
2023/03/21 09:47:51;;;;;;;21.00;11.45;;;;;;;9.29;100.00;101256.88;5050784;28;20100;-70
2023/03/21 09:50:30;;;;;;;17.65;11.05;;;;;;;9.29;100.00;101255.09;5054754;28;20077;-70
2023/03/21 09:53:11;;;;;;;17.20;10.48;;;;;;;9.29;100.00;101243.81;5055678;28;20040;-70
2023/03/21 09:55:39;;;;;;;21.05;10.90;;;;;;;9.31;100.00;101244.63;5055070;28;20325;-70
2023/03/21 09:58:15;;;;;;;20.60;11.82;;;;;;;9.32;100.00;101243.72;5049839;28;20075;-70
2023/03/21 10:00:46;;;;;;;20.27;11.20;;;;;;;9.33;100.00;101242.81;5051605;28;20040;-70
2023/03/21 10:03:25;;;;;;;19.60;10.90;;;;;;;9.36;100.00;101234.88;5054290;28;20037;-70
2023/03/21 10:05:56;;;;;;;27.55;11.05;;;;;;;9.38;100.00;101241.78;5054424;28;20036;-70
2023/03/21 10:08:26;;;;;;;21.65;10.15;;;;;;;9.39;100.00;101235.66;5050597;28;20348;-70
2023/03/21 10:11:01;;;;;;;21.80;11.20;;;;;;;9.41;100.00;101239.06;5053982;28;20041;-70
2023/03/21 10:13:38;;;;;;;21.15;11.05;;;;;;;9.44;100.00;101240.75;5059572;28;20071;-70
2023/03/21 10:16:26;;;;;;;20.63;10.38;;;;;;;9.47;100.00;101247.66;5058461;28;20103;-70
2023/03/21 10:18:53;;;;;;;21.67;10.38;;;;;;;9.50;100.00;101253.63;5059262;28;20037;-70
2023/03/21 10:21:23;;;;;;;20.67;10.55;;;;;;;9.50;100.00;101252.78;5059354;28;20041;-70
2023/03/21 10:23:51;;;;;;;20.90;10.85;;;;;;;9.51;100.00;101265.78;5059211;28;20036;-70
2023/03/21 10:26:20;;;;;;;16.50;10.02;;;;;;;9.53;100.00;101273.59;5054766;28;20433;-70
2023/03/21 10:28:47;;;;;;;14.52;9.80;;;;;;;9.54;100.00;101270.94;5058557;28;20574;-70
2023/03/21 10:31:19;;;;;;;21.92;10.07;;;;;;;9.54;100.00;101268.31;5057796;28;20091;-70
2023/03/21 10:33:47;;;;;;;20.48;9.50;;;;;;;9.54;100.00;101270.09;5059208;28;20029;-70
2023/03/21 10:36:21;;;;;;;17.45;9.98;;;;;;;9.53;100.00;101274.47;5056437;28;20044;-70
2023/03/21 10:38:51;;;;;;;21.20;10.10;;;;;;;9.53;100.00;101266.63;5058761;28;20043;-70
2023/03/21 10:41:16;;;;;;;20.10;9.70;;;;;;;9.54;100.00;101262.25;5058984;28;20332;-70
2023/03/21 10:43:44;;;;;;;22.52;10.43;;;;;;;9.51;100.00;101263.19;5058624;28;20044;-70
2023/03/21 10:46:20;;;;;;;17.38;9.95;;;;;;;9.52;100.00;101262.28;5058960;28;20382;-70
2023/03/21 10:48:51;;;;;;;13.00;9.60;;;;;;;9.51;100.00;101244.03;5058151;28;20020;-70
2023/03/21 10:51:27;;;;;;;24.13;10.48;;;;;;;9.51;100.00;101246.66;5057828;28;20032;-70
2023/03/21 10:53:57;;;;;;;19.38;9.73;;;;;;;9.50;100.00;101258.03;5058549;28;20032;-70
2023/03/21 10:56:26;;;;;;;24.48;10.00;;;;;;;9.50;100.00;101242.34;5057148;28;20359;-70
2023/03/21 10:58:57;;;;;;;20.58;10.13;;;;;;;9.52;100.00;101224.84;5057332;28;20037;-70
2023/03/21 11:01:45;;;;;;;20.70;10.63;;;;;;;9.53;100.00;101216.94;5057769;28;20067;-70
2023/03/21 11:04:18;;;;;;;20.23;9.88;;;;;;;9.53;100.00;101219.56;5058117;28;20029;-70
2023/03/21 11:06:49;;;;;;;19.67;11.18;;;;;;;9.55;100.00;101216.88;5057779;28;20084;-70
2023/03/21 11:09:19;;;;;;;20.73;11.10;;;;;;;9.59;100.00;101213.28;5056329;28;20028;-70
2023/03/21 11:12:09;;;;;;;20.75;11.30;;;;;;;9.61;100.00;101224.56;5057230;28;20029;-70
2023/03/21 11:14:35;;;;;;;23.20;11.48;;;;;;;9.64;100.00;101216.63;5042631;28;20044;-70
2023/03/21 11:17:00;;;;;;;17.23;11.18;;;;;;;9.67;100.00;101226.97;5058980;28;20075;-70
2023/03/21 11:19:35;;;;;;;23.67;11.68;;;;;;;9.70;100.00;101228.66;5057746;28;20079;-70
2023/03/21 11:22:06;;;;;;;16.85;11.07;;;;;;;9.70;100.00;101223.44;5056881;28;20426;-70
2023/03/21 11:24:34;;;;;;;20.40;10.32;;;;;;;9.72;100.00;101230.31;5054833;28;20568;-70
2023/03/21 11:27:06;;;;;;;16.38;10.10;;;;;;;9.75;100.00;101230.22;5056518;28;20075;-70